createdAt,value
2018-05-25T00:01:25.095Z,101197.95
2018-05-25T00:03:53.533Z,101194.92
2018-05-25T00:06:21.923Z,101194.05
2018-05-25T00:08:50.378Z,101191.88
2018-05-25T00:11:18.834Z,101191.88
2018-05-25T00:13:47.986Z,101191.89
2018-05-25T00:16:16.373Z,101196.23
2018-05-25T00:18:44.765Z,101201.92
2018-05-25T00:21:13.313Z,101204.14
2018-05-25T00:23:41.733Z,101200.18
2018-05-25T00:26:10.132Z,101204.58
2018-05-25T00:28:38.524Z,101198.89
2018-05-25T00:31:06.971Z,101196.27
2018-05-25T00:33:35.360Z,101197.57
2018-05-25T00:36:03.743Z,101204.13
2018-05-25T00:38:32.174Z,101207.17
2018-05-25T00:41:01.322Z,101205.42
2018-05-25T00:43:29.717Z,101202.81
2018-05-25T00:45:58.111Z,101207.61
2018-05-25T00:48:26.505Z,101205.44
2018-05-25T00:50:54.876Z,101215.06
2018-05-25T00:53:23.393Z,101217.22
2018-05-25T00:55:52.719Z,101210.23
2018-05-25T00:58:21.108Z,101201.91
2018-05-25T01:00:49.518Z,101202.34
2018-05-25T01:03:17.918Z,101194.00
2018-05-25T01:05:46.310Z,101196.21
2018-05-25T01:08:14.708Z,101203.22
2018-05-25T01:10:43.201Z,101204.53
2018-05-25T01:13:12.350Z,101202.31
2018-05-25T01:15:40.748Z,101199.70
2018-05-25T01:18:09.154Z,101204.45
2018-05-25T01:20:37.547Z,101195.69
2018-05-25T01:23:06.710Z,101196.60
2018-05-25T01:25:35.119Z,101192.67
2018-05-25T01:28:03.585Z,101193.55
2018-05-25T01:30:31.992Z,101190.92
2018-05-25T01:33:00.414Z,101193.57
2018-05-25T01:35:28.813Z,101187.43
2018-05-25T01:37:57.201Z,101185.28
2018-05-25T01:40:25.617Z,101179.13
2018-05-25T01:42:54.053Z,101190.95
2018-05-25T01:45:23.593Z,101187.89
2018-05-25T01:47:51.973Z,101182.23
2018-05-25T01:50:20.393Z,101180.49
2018-05-25T01:52:49.014Z,101173.97
2018-05-25T01:55:17.479Z,101180.98
2018-05-25T01:57:46.622Z,101178.78
2018-05-25T02:00:15.006Z,101183.14
2018-05-25T02:02:43.385Z,101181.86
2018-05-25T02:05:11.768Z,101171.80
2018-05-25T02:07:40.142Z,101180.97
2018-05-25T02:10:08.628Z,101179.24
2018-05-25T02:12:37.740Z,101181.42
2018-05-25T02:15:06.269Z,101179.22
2018-05-25T02:17:35.441Z,101180.56
2018-05-25T02:20:03.841Z,101185.35
2018-05-25T02:22:32.280Z,101182.30
2018-05-25T02:25:01.394Z,101184.91
2018-05-25T02:27:29.799Z,101181.43
2018-05-25T02:29:58.200Z,101187.09
2018-05-25T02:32:26.613Z,101181.42
2018-05-25T02:34:55.074Z,101180.53
2018-05-25T02:37:23.466Z,101172.25
2018-05-25T02:39:52.617Z,101173.09
2018-05-25T02:42:21.006Z,101176.16
2018-05-25T02:44:49.384Z,101173.09
2018-05-25T02:47:17.784Z,101170.03
2018-05-25T02:49:46.195Z,101170.42
2018-05-25T02:52:15.349Z,101179.59
2018-05-25T02:54:43.757Z,101180.45
2018-05-25T02:57:12.256Z,101175.63
2018-05-25T02:59:40.593Z,101171.25
2018-05-25T03:02:08.973Z,101176.95
2018-05-25T03:04:37.353Z,101178.25
2018-05-25T03:07:05.754Z,101179.12
2018-05-25T03:12:01.505Z,101186.55
2018-05-25T03:14:29.960Z,101184.40
2018-05-25T03:16:58.346Z,101185.72
2018-05-25T03:19:26.787Z,101185.70
2018-05-25T03:21:55.125Z,101185.25
2018-05-25T03:24:23.529Z,101178.70
2018-05-25T03:26:51.930Z,101177.38
2018-05-25T03:29:21.133Z,101184.81
2018-05-25T03:31:50.293Z,101187.06
2018-05-25T03:34:18.699Z,101194.49
2018-05-25T03:36:47.200Z,101193.19
2018-05-25T03:39:15.589Z,101194.47
2018-05-25T03:41:44.866Z,101191.86
2018-05-25T03:44:13.255Z,101193.13
2018-05-25T03:46:41.665Z,101193.98
2018-05-25T03:49:10.802Z,101192.25
2018-05-25T03:51:39.212Z,101191.88
2018-05-25T03:54:07.673Z,101190.58
2018-05-25T03:56:36.070Z,101187.06
2018-05-25T04:02:14.928Z,101198.85
2018-05-25T04:04:43.988Z,101194.48
2018-05-25T04:07:12.374Z,101201.03
2018-05-25T04:09:40.748Z,101196.25
2018-05-25T04:12:09.134Z,101203.69
2018-05-25T04:14:37.513Z,101202.39
2018-05-25T04:17:05.902Z,101203.70
2018-05-25T04:19:35.235Z,101207.61
2018-05-25T04:22:03.637Z,101206.74
2018-05-25T04:24:32.022Z,101205.02
2018-05-25T04:27:00.411Z,101211.98
2018-05-25T04:29:28.834Z,101211.09
2018-05-25T04:31:57.334Z,101213.30
2018-05-25T04:34:25.718Z,101218.53
2018-05-25T04:36:54.153Z,101212.39
2018-05-25T04:39:23.312Z,101211.52
2018-05-25T04:41:51.712Z,101214.98
2018-05-25T04:44:20.102Z,101213.71
2018-05-25T04:46:48.483Z,101216.34
2018-05-25T04:49:17.088Z,101219.36
2018-05-25T04:51:46.301Z,101221.56
2018-05-25T04:54:14.771Z,101224.63
2018-05-25T04:56:43.945Z,101232.48
2018-05-25T04:59:12.352Z,101228.55
2018-05-25T05:01:40.733Z,101229.39
2018-05-25T05:04:09.114Z,101238.55
2018-05-25T05:06:37.502Z,101233.69
2018-05-25T05:09:06.721Z,101227.53
2018-05-25T05:11:35.878Z,101231.38
2018-05-25T05:14:04.373Z,101229.18
2018-05-25T05:16:33.572Z,101236.52
2018-05-25T05:19:01.957Z,101235.20
2018-05-25T05:21:30.414Z,101232.36
2018-05-25T05:23:58.801Z,101231.03
2018-05-25T05:26:27.211Z,101225.77
2018-05-25T05:28:55.597Z,101232.64
2018-05-25T05:31:23.989Z,101234.03
2018-05-25T05:33:52.377Z,101232.24
2018-05-25T05:36:20.774Z,101232.95
2018-05-25T05:38:49.929Z,101228.89
2018-05-25T05:41:19.125Z,101230.75
2018-05-25T05:43:47.501Z,101218.23
2018-05-25T05:46:15.890Z,101219.45
2018-05-25T05:48:44.280Z,101221.24
2018-05-25T05:51:13.420Z,101221.97
2018-05-25T05:53:42.583Z,101227.14
2018-05-25T05:56:10.985Z,101235.67
2018-05-25T05:58:39.374Z,101241.36
2018-05-25T06:01:07.753Z,101239.52
2018-05-25T06:03:36.235Z,101242.88
2018-05-25T06:06:05.415Z,101236.78
2018-05-25T06:08:33.794Z,101243.19
2018-05-25T06:11:02.195Z,101247.20
2018-05-25T06:13:30.580Z,101251.30
2018-05-25T06:15:59.043Z,101245.95
2018-05-25T06:18:27.507Z,101251.19
2018-05-25T06:20:55.921Z,101256.97
2018-05-25T06:23:24.373Z,101255.84
2018-05-25T06:25:52.753Z,101258.25
2018-05-25T06:28:21.167Z,101257.59
2018-05-25T06:30:49.548Z,101252.48
2018-05-25T06:33:17.931Z,101252.27
2018-05-25T06:35:46.344Z,101256.09
2018-05-25T06:38:14.725Z,101259.75
2018-05-25T06:40:43.113Z,101258.17
2018-05-25T06:43:11.494Z,101259.04
2018-05-25T06:45:39.878Z,101262.47
2018-05-25T06:48:08.253Z,101263.56
2018-05-25T06:50:36.657Z,101261.00
2018-05-25T06:53:05.051Z,101266.88
2018-05-25T06:55:34.206Z,101259.08
2018-05-25T06:58:02.684Z,101255.31
2018-05-25T07:00:31.797Z,101256.70
2018-05-25T07:03:00.202Z,101260.86
2018-05-25T07:05:28.593Z,101261.48
2018-05-25T07:07:57.003Z,101261.19
2018-05-25T07:10:25.386Z,101258.30
2018-05-25T07:12:53.777Z,101265.73
2018-05-25T07:15:22.166Z,101256.34
2018-05-25T07:17:50.597Z,101261.22
2018-05-25T07:20:18.984Z,101260.26
2018-05-25T07:22:47.365Z,101266.14
2018-05-25T07:25:15.761Z,101270.60
2018-05-25T07:27:44.166Z,101264.92
2018-05-25T07:30:12.558Z,101266.51
2018-05-25T07:32:40.971Z,101272.51
2018-05-25T07:35:09.349Z,101271.81
2018-05-25T07:37:37.757Z,101278.68
2018-05-25T07:40:06.192Z,101281.09
2018-05-25T07:42:34.596Z,101284.41
2018-05-25T07:45:03.029Z,101283.36
2018-05-25T07:47:32.182Z,101287.16
2018-05-25T07:50:00.598Z,101282.80
2018-05-25T07:52:28.988Z,101283.27
2018-05-25T07:54:57.387Z,101281.08
2018-05-25T07:57:26.548Z,101283.41
2018-05-25T07:59:54.950Z,101284.80
2018-05-25T08:02:23.329Z,101278.85
2018-05-25T08:04:51.710Z,101285.45
2018-05-25T08:07:20.192Z,101283.75
2018-05-25T08:09:48.589Z,101282.37
2018-05-25T08:12:16.983Z,101283.39
2018-05-25T08:14:45.399Z,101284.89
2018-05-25T08:17:13.799Z,101289.77
2018-05-25T08:19:42.195Z,101283.77
2018-05-25T08:22:10.623Z,101281.66
2018-05-25T08:24:39.780Z,101283.77
2018-05-25T08:27:08.157Z,101283.09
2018-05-25T08:29:36.561Z,101280.98
2018-05-25T08:32:04.963Z,101277.54
2018-05-25T08:34:40.069Z,101280.03
2018-05-25T08:37:08.494Z,101285.36
2018-05-25T08:39:37.660Z,101282.34
2018-05-25T08:42:06.054Z,101275.42
2018-05-25T08:44:34.538Z,101284.63
2018-05-25T08:47:02.925Z,101277.11
2018-05-25T08:49:31.359Z,101285.90
2018-05-25T08:51:59.736Z,101278.63
2018-05-25T08:54:28.158Z,101286.63
2018-05-25T08:56:57.324Z,101285.59
2018-05-25T08:59:25.715Z,101280.52
2018-05-25T09:01:54.186Z,101275.23
2018-05-25T09:04:22.790Z,101270.27
2018-05-25T09:06:51.414Z,101281.51
2018-05-25T09:09:19.592Z,101274.91
2018-05-25T09:11:47.968Z,101271.72
2018-05-25T09:14:16.393Z,101274.38
2018-05-25T09:16:44.796Z,101267.00
2018-05-25T09:19:13.194Z,101268.26
2018-05-25T09:21:41.668Z,101273.27
2018-05-25T09:24:10.021Z,101266.27
2018-05-25T09:26:39.216Z,101275.21
2018-05-25T09:29:07.896Z,101274.55
2018-05-25T09:31:36.300Z,101273.10
2018-05-25T09:34:05.460Z,101270.76
2018-05-25T09:36:33.865Z,101275.75
2018-05-25T09:39:02.259Z,101267.55
2018-05-25T09:41:30.662Z,101270.39
2018-05-25T09:43:59.849Z,101264.10
2018-05-25T09:46:28.226Z,101268.19
2018-05-25T09:48:56.756Z,101270.05
2018-05-25T09:51:25.067Z,101269.45
2018-05-25T09:53:53.458Z,101271.25
2018-05-25T09:56:21.897Z,101266.36
2018-05-25T09:58:50.281Z,101267.04
2018-05-25T10:01:18.725Z,101269.68
2018-05-25T10:03:47.291Z,101263.44
2018-05-25T10:06:15.705Z,101271.30
2018-05-25T10:08:44.867Z,101271.13
2018-05-25T10:11:13.278Z,101271.38
2018-05-25T10:13:41.681Z,101260.62
2018-05-25T10:16:10.852Z,101263.87
2018-05-25T10:18:39.296Z,101264.82
2018-05-25T10:21:07.773Z,101258.33
2018-05-25T10:23:36.195Z,101256.02
2018-05-25T10:26:04.579Z,101255.37
2018-05-25T10:28:32.985Z,101260.05
2018-05-25T10:31:01.387Z,101251.32
2018-05-25T10:33:30.537Z,101250.95
2018-05-25T10:35:59.695Z,101247.69
2018-05-25T10:38:28.881Z,101256.29
2018-05-25T10:40:58.064Z,101250.86
2018-05-25T10:43:26.438Z,101248.91
2018-05-25T10:45:54.869Z,101246.59
2018-05-25T10:48:23.251Z,101252.21
2018-05-25T10:50:51.686Z,101249.56
2018-05-25T10:53:20.106Z,101242.37
2018-05-25T10:55:49.363Z,101237.84
2018-05-25T10:58:17.766Z,101242.02
2018-05-25T11:00:46.160Z,101234.98
2018-05-25T11:03:14.626Z,101235.12
2018-05-25T11:05:43.003Z,101235.89
2018-05-25T11:08:11.407Z,101238.47
2018-05-25T11:10:40.052Z,101238.30
2018-05-25T11:13:08.448Z,101237.20
2018-05-25T11:15:36.881Z,101241.59
2018-05-25T11:18:06.083Z,101235.09
2018-05-25T11:20:35.267Z,101229.20
2018-05-25T11:23:03.670Z,101232.31
2018-05-25T11:25:32.848Z,101243.47
2018-05-25T11:28:01.340Z,101242.66
2018-05-25T11:30:29.755Z,101238.27
2018-05-25T11:32:58.922Z,101234.38
2018-05-25T11:35:27.353Z,101231.77
2018-05-25T11:37:55.749Z,101229.33
2018-05-25T11:40:24.179Z,101224.27
2018-05-25T11:42:52.627Z,101225.30
2018-05-25T11:45:21.879Z,101216.62
2018-05-25T11:47:50.359Z,101214.91
2018-05-25T11:50:18.834Z,101216.55
2018-05-25T11:52:47.386Z,101208.76
2018-05-25T11:55:15.829Z,101206.64
2018-05-25T11:57:45.061Z,101206.54
2018-05-25T12:00:13.514Z,101216.66
2018-05-25T12:02:42.731Z,101207.73
2018-05-25T12:05:11.861Z,101208.86
2018-05-25T12:07:40.247Z,101208.85
2018-05-25T12:10:08.708Z,101207.28
2018-05-25T12:12:37.110Z,101207.66
2018-05-25T12:15:05.517Z,101210.02
2018-05-25T12:17:33.919Z,101209.55
2018-05-25T12:20:02.332Z,101207.58
2018-05-25T12:22:30.756Z,101210.28
2018-05-25T12:24:59.177Z,101209.87
2018-05-25T12:27:27.548Z,101206.57
2018-05-25T12:29:55.947Z,101205.61
2018-05-25T12:32:24.338Z,101203.53
2018-05-25T12:34:53.518Z,101214.02
2018-05-25T12:37:21.926Z,101203.24
2018-05-25T12:39:51.077Z,101202.17
2018-05-25T12:42:19.465Z,101206.44
2018-05-25T12:45:05.413Z,101205.99
2018-05-25T12:47:33.822Z,101203.15
2018-05-25T12:50:02.205Z,101205.25
2018-05-25T12:52:30.625Z,101203.86
2018-05-25T12:54:59.032Z,101213.69
2018-05-25T12:57:28.209Z,101211.48
2018-05-25T12:59:56.635Z,101208.47
2018-05-25T13:02:25.013Z,101209.52
2018-05-25T13:04:53.401Z,101210.81
2018-05-25T13:07:21.801Z,101211.17
2018-05-25T13:09:50.201Z,101204.59
2018-05-25T13:12:18.591Z,101202.80
2018-05-25T13:14:47.010Z,101199.42
2018-05-25T13:17:16.222Z,101196.98
2018-05-25T13:19:44.623Z,101199.92
2018-05-25T13:22:13.084Z,101195.25
2018-05-25T13:24:42.274Z,101192.98
2018-05-25T13:27:10.654Z,101194.16
2018-05-25T13:29:39.813Z,101193.98
2018-05-25T13:32:08.196Z,101185.33
2018-05-25T13:34:36.619Z,101190.62
2018-05-25T13:37:05.270Z,101191.56
2018-05-25T13:39:33.673Z,101187.25
2018-05-25T13:42:02.091Z,101184.91
2018-05-25T13:44:31.273Z,101188.22
2018-05-25T13:46:59.665Z,101185.97
2018-05-25T13:49:28.047Z,101176.89
2018-05-25T13:51:56.513Z,101185.48
2018-05-25T13:54:25.679Z,101183.06
2018-05-25T13:56:54.114Z,101181.54
2018-05-25T13:59:22.501Z,101187.34
2018-05-25T14:01:50.915Z,101180.14
2018-05-25T14:04:19.303Z,101174.27
2018-05-25T14:06:47.674Z,101177.47
2018-05-25T14:09:16.063Z,101176.30
2018-05-25T14:11:44.533Z,101174.56
2018-05-25T14:14:12.992Z,101183.62
2018-05-25T14:16:41.374Z,101179.16
2018-05-25T14:19:09.789Z,101174.86
2018-05-25T14:21:38.935Z,101176.01
2018-05-25T14:24:07.331Z,101182.72
2018-05-25T14:26:35.734Z,101183.55
2018-05-25T14:29:04.216Z,101178.03
2018-05-25T14:31:32.653Z,101168.23
2018-05-25T14:34:01.033Z,101170.45
2018-05-25T14:36:29.423Z,101176.56
2018-05-25T14:38:57.847Z,101180.71
2018-05-25T14:41:26.284Z,101181.62
2018-05-25T14:43:54.655Z,101180.09
2018-05-25T14:46:23.103Z,101179.90
2018-05-25T14:48:51.479Z,101179.98
2018-05-25T14:51:19.856Z,101173.08
2018-05-25T14:53:48.251Z,101176.83
2018-05-25T14:56:16.652Z,101180.09
2018-05-25T14:58:45.806Z,101180.97
2018-05-25T15:01:14.214Z,101192.55
2018-05-25T15:03:42.605Z,101175.72
2018-05-25T15:06:11.103Z,101180.65
2018-05-25T15:08:40.284Z,101176.61
2018-05-25T15:11:08.771Z,101179.84
2018-05-25T15:13:37.191Z,101176.23
2018-05-25T15:16:05.570Z,101178.61
2018-05-25T15:18:34.729Z,101166.77
2018-05-25T15:21:03.114Z,101166.19
2018-05-25T15:23:31.581Z,101169.06
2018-05-25T15:25:59.994Z,101171.32
2018-05-25T15:28:28.400Z,101167.98
2018-05-25T15:30:57.635Z,101161.35
2018-05-25T15:33:26.827Z,101162.48
2018-05-25T15:35:55.229Z,101159.05
2018-05-25T15:38:23.704Z,101157.99
2018-05-25T15:40:52.102Z,101151.41
2018-05-25T15:43:20.476Z,101150.41
2018-05-25T15:45:48.858Z,101148.33
2018-05-25T15:48:17.277Z,101152.23
2018-05-25T15:50:45.679Z,101145.67
2018-05-25T15:53:14.085Z,101148.57
2018-05-25T15:55:43.256Z,101140.36
2018-05-25T15:58:11.639Z,101144.06
2018-05-25T16:00:40.095Z,101142.26
2018-05-25T16:03:08.491Z,101143.61
2018-05-25T16:05:36.982Z,101141.71
2018-05-25T16:08:05.370Z,101143.38
2018-05-25T16:10:33.776Z,101141.30
2018-05-25T16:13:03.031Z,101139.97
2018-05-25T16:15:31.596Z,101138.62
2018-05-25T16:18:00.004Z,101140.19
2018-05-25T16:20:28.520Z,101130.81
2018-05-25T16:22:57.033Z,101131.67
2018-05-25T16:25:26.197Z,101129.30
2018-05-25T16:27:54.590Z,101137.56
2018-05-25T16:30:23.125Z,101130.19
2018-05-25T16:32:51.522Z,101128.41
2018-05-25T16:35:21.513Z,101127.27
2018-05-25T16:37:50.696Z,101126.59
2018-05-25T16:40:19.870Z,101120.78
2018-05-25T16:42:48.325Z,101125.15
2018-05-25T16:45:16.777Z,101117.25
2018-05-25T16:47:45.998Z,101120.80
2018-05-25T16:50:14.463Z,101118.31
2018-05-25T16:52:42.807Z,101113.58
2018-05-25T16:55:11.224Z,101117.31
2018-05-25T16:57:40.406Z,101117.63
2018-05-25T17:00:08.808Z,101121.19
2018-05-25T17:02:37.977Z,101117.27
2018-05-25T17:05:06.382Z,101122.25
2018-05-25T17:07:34.761Z,101112.95
2018-05-25T17:10:03.196Z,101120.55
2018-05-25T17:12:31.748Z,101120.12
2018-05-25T17:15:00.098Z,101120.30
2018-05-25T17:17:28.522Z,101126.00
2018-05-25T17:19:57.749Z,101122.56
2018-05-25T17:22:26.133Z,101125.35
2018-05-25T17:24:54.572Z,101122.71
2018-05-25T17:27:22.966Z,101125.16
2018-05-25T17:29:52.142Z,101123.14
2018-05-25T17:32:20.563Z,101125.47
2018-05-25T17:34:49.709Z,101124.48
2018-05-25T17:37:18.154Z,101133.19
2018-05-25T17:39:46.543Z,101132.64
2018-05-25T17:42:15.058Z,101135.17
2018-05-25T17:44:43.390Z,101136.61
2018-05-25T17:47:12.632Z,101134.70
2018-05-25T17:49:41.090Z,101131.28
2018-05-25T17:52:09.489Z,101135.86
2018-05-25T17:54:37.949Z,101142.08
2018-05-25T17:57:07.109Z,101136.34
2018-05-25T17:59:35.485Z,101139.48
2018-05-25T18:02:03.926Z,101148.99
2018-05-25T18:04:32.334Z,101149.27
2018-05-25T18:07:00.826Z,101145.95
2018-05-25T18:09:29.256Z,101143.92
2018-05-25T18:11:57.728Z,101150.61
2018-05-25T18:14:26.139Z,101153.03
2018-05-25T18:16:55.338Z,101155.27
2018-05-25T18:19:24.558Z,101155.27
2018-05-25T18:21:52.940Z,101156.76
2018-05-25T18:24:21.335Z,101155.89
2018-05-25T18:26:49.743Z,101154.63
2018-05-25T18:29:18.326Z,101160.50
2018-05-25T18:31:46.722Z,101158.22
2018-05-25T18:34:15.903Z,101161.17
2018-05-25T18:36:44.291Z,101162.53
2018-05-25T18:39:12.682Z,101161.53
2018-05-25T18:41:41.862Z,101162.32
2018-05-25T18:44:10.260Z,101162.84
2018-05-25T18:46:38.673Z,101165.08
2018-05-25T18:49:07.078Z,101162.16
2018-05-25T18:51:36.253Z,101162.51
2018-05-25T18:54:22.228Z,101161.56
2018-05-25T18:56:50.637Z,101167.27
2018-05-25T18:59:19.031Z,101165.78
2018-05-25T19:01:48.211Z,101166.77
2018-05-25T19:04:16.615Z,101174.93
2018-05-25T19:09:16.187Z,101179.27
2018-05-25T19:11:44.580Z,101172.55
2018-05-25T19:14:12.988Z,101176.84
2018-05-25T19:16:41.426Z,101179.95
2018-05-25T19:19:09.849Z,101188.83
2018-05-25T19:21:38.259Z,101190.55
2018-05-25T19:24:06.655Z,101196.00
2018-05-25T19:26:35.828Z,101193.65
2018-05-25T19:29:04.213Z,101199.13
2018-05-25T19:31:32.717Z,101197.83
2018-05-25T19:34:01.104Z,101203.27
2018-05-25T19:36:30.294Z,101206.03
2018-05-25T19:38:58.676Z,101205.10
2018-05-25T19:41:27.084Z,101207.67
2018-05-25T19:43:56.254Z,101213.42
2018-05-25T19:46:24.664Z,101216.89
2018-05-25T19:48:53.854Z,101218.48
2018-05-25T19:51:23.062Z,101221.23
2018-05-25T19:53:52.226Z,101222.59
2018-05-25T19:56:20.609Z,101228.23
2018-05-25T19:58:49.049Z,101234.57
2018-05-25T20:01:17.626Z,101234.09
2018-05-25T20:03:46.830Z,101233.98
2018-05-25T20:06:16.000Z,101234.16
2018-05-25T20:08:44.400Z,101235.96
2018-05-25T20:11:13.644Z,101238.45
2018-05-25T20:13:42.038Z,101241.60
2018-05-25T20:16:10.481Z,101238.05
2018-05-25T20:18:38.933Z,101244.56
2018-05-25T20:21:07.616Z,101238.75
2018-05-25T20:23:36.027Z,101232.09
2018-05-25T20:26:04.418Z,101234.83
2018-05-25T20:28:33.636Z,101230.24
2018-05-25T20:31:01.988Z,101224.11
2018-05-25T20:33:30.455Z,101225.12
2018-05-25T20:35:58.902Z,101235.79
2018-05-25T20:38:27.305Z,101235.21
2018-05-25T20:40:55.718Z,101232.84
2018-05-25T20:43:24.154Z,101241.05
2018-05-25T20:45:52.566Z,101240.36
2018-05-25T20:48:21.459Z,101236.81
2018-05-25T20:50:49.854Z,101232.31
2018-05-25T20:53:18.326Z,101233.34
2018-05-25T20:55:47.436Z,101238.73
2018-05-25T20:58:15.835Z,101234.90
2018-05-25T21:00:44.261Z,101230.62
2018-05-25T21:03:12.649Z,101229.38
2018-05-25T21:05:41.054Z,101232.98
2018-05-25T21:08:09.451Z,101237.08
2018-05-25T21:10:37.855Z,101236.05
2018-05-25T21:13:06.265Z,101239.63
2018-05-25T21:15:35.465Z,101240.40
2018-05-25T21:18:04.636Z,101242.81
2018-05-25T21:20:33.027Z,101236.48
2018-05-25T21:23:01.435Z,101232.27
2018-05-25T21:25:30.617Z,101234.45
2018-05-25T21:27:59.797Z,101235.80
2018-05-25T21:30:28.296Z,101239.56
2018-05-25T21:32:56.683Z,101246.81
2018-05-25T21:35:25.121Z,101249.22
2018-05-25T21:37:53.523Z,101251.55
2018-05-25T21:40:21.962Z,101258.34
2018-05-25T21:42:50.342Z,101258.91
2018-05-25T21:45:19.943Z,101257.61
2018-05-25T21:47:49.102Z,101265.57
2018-05-25T21:50:17.495Z,101260.75
2018-05-25T21:52:45.922Z,101265.05
2018-05-25T21:55:15.183Z,101265.55
2018-05-25T21:57:43.786Z,101267.34
2018-05-25T22:00:12.163Z,101269.09
2018-05-25T22:02:40.595Z,101273.98
2018-05-25T22:05:08.994Z,101268.88
2018-05-25T22:07:37.393Z,101274.64
2018-05-25T22:10:05.951Z,101276.84
2018-05-25T22:12:34.339Z,101282.62
2018-05-25T22:15:02.776Z,101287.47
2018-05-25T22:17:31.204Z,101293.25
2018-05-25T22:19:59.607Z,101291.23
2018-05-25T22:22:28.073Z,101287.84
2018-05-25T22:24:56.584Z,101294.14
2018-05-25T22:27:24.959Z,101295.11
2018-05-25T22:29:53.356Z,101294.77
2018-05-25T22:32:22.571Z,101306.23
2018-05-25T22:34:51.041Z,101303.23
2018-05-25T22:37:19.468Z,101305.92
2018-05-25T22:39:48.654Z,101311.63
2018-05-25T22:42:34.557Z,101317.76
2018-05-25T22:45:21.411Z,101319.08
2018-05-25T22:48:07.590Z,101322.68
2018-05-25T22:50:53.673Z,101330.22
2018-05-25T22:53:26.815Z,101319.34
2018-05-25T22:55:55.998Z,101328.59
2018-05-25T22:58:24.536Z,101330.33
2018-05-25T23:00:52.925Z,101329.05
2018-05-25T23:03:21.318Z,101329.98
2018-05-25T23:05:49.727Z,101334.75
2018-05-25T23:08:18.143Z,101333.02
2018-05-25T23:10:47.301Z,101330.83
2018-05-25T23:13:16.480Z,101324.72
2018-05-25T23:15:44.903Z,101327.41
2018-05-25T23:18:13.443Z,101324.34
2018-05-25T23:20:41.835Z,101330.02
2018-05-25T23:23:10.276Z,101329.95
2018-05-25T23:25:38.694Z,101322.88
2018-05-25T23:28:07.126Z,101322.73
2018-05-25T23:30:35.549Z,101318.27
2018-05-25T23:33:03.926Z,101310.76
2018-05-25T23:35:33.097Z,101315.16
2018-05-25T23:38:01.479Z,101318.68
2018-05-25T23:40:29.881Z,101318.34
2018-05-25T23:42:58.271Z,101317.12
2018-05-25T23:45:27.458Z,101316.31
2018-05-25T23:47:55.862Z,101311.56
2018-05-25T23:50:25.085Z,101313.38
2018-05-25T23:52:53.477Z,101312.09
2018-05-25T23:55:21.869Z,101313.89
2018-05-25T23:57:50.277Z,101311.29
